createdAt,value
2023-05-20T00:01:41.532Z,12.20
2023-05-20T00:04:08.643Z,12.20
2023-05-20T00:06:35.691Z,12.20
2023-05-20T00:09:02.905Z,12.20
2023-05-20T00:11:29.816Z,12.20
2023-05-20T00:13:56.676Z,12.20
2023-05-20T00:16:23.669Z,12.20
2023-05-20T00:18:50.689Z,12.20
2023-05-20T00:21:17.579Z,12.30
2023-05-20T00:23:44.570Z,12.30
2023-05-20T00:26:11.514Z,12.30
2023-05-20T00:28:39.194Z,12.30
2023-05-20T00:31:06.053Z,12.30
2023-05-20T00:33:32.951Z,12.30
2023-05-20T00:35:59.857Z,12.30
2023-05-20T00:38:26.837Z,12.30
2023-05-20T00:40:53.710Z,12.30
2023-05-20T00:43:20.799Z,12.40
2023-05-20T00:45:48.175Z,12.40
2023-05-20T00:48:15.386Z,12.40
2023-05-20T00:50:42.401Z,12.40
2023-05-20T00:53:10.311Z,12.40
2023-05-20T00:55:37.952Z,12.40
2023-05-20T00:58:05.904Z,12.40
2023-05-20T01:00:33.377Z,12.40
2023-05-20T01:03:01.527Z,12.40
2023-05-20T01:05:28.541Z,12.40
2023-05-20T01:07:55.654Z,12.40
2023-05-20T01:10:27.275Z,12.50
2023-05-20T01:12:56.967Z,12.50
2023-05-20T01:15:28.221Z,12.50
2023-05-20T01:18:06.089Z,12.60
2023-05-20T01:20:33.843Z,12.60
2023-05-20T01:23:00.814Z,12.60
2023-05-20T01:25:27.769Z,12.60
2023-05-20T01:27:57.704Z,12.60
2023-05-20T01:30:30.685Z,12.60
2023-05-20T01:33:05.513Z,12.60
2023-05-20T01:35:32.955Z,12.70
2023-05-20T01:38:01.407Z,12.60
2023-05-20T01:40:29.182Z,12.60
2023-05-20T01:42:58.220Z,12.60
2023-05-20T01:45:26.055Z,12.60
2023-05-20T01:47:53.175Z,12.60
2023-05-20T01:50:20.104Z,12.60
2023-05-20T01:52:47.372Z,12.60
2023-05-20T01:55:14.294Z,12.60
2023-05-20T01:57:42.100Z,12.60
2023-05-20T02:00:11.034Z,12.60
2023-05-20T02:02:41.360Z,12.60
2023-05-20T02:05:11.119Z,12.60
2023-05-20T02:07:38.040Z,12.60
2023-05-20T02:10:05.630Z,12.60
2023-05-20T02:12:32.529Z,12.60
2023-05-20T02:14:59.457Z,12.70
2023-05-20T02:17:26.894Z,12.70
2023-05-20T02:19:53.869Z,12.70
2023-05-20T02:22:20.882Z,12.70
2023-05-20T02:24:47.805Z,12.60
2023-05-20T02:27:16.324Z,12.60
2023-05-20T02:29:44.392Z,12.60
2023-05-20T02:32:12.636Z,12.60
2023-05-20T02:34:39.603Z,12.60
2023-05-20T02:37:06.576Z,12.60
2023-05-20T02:39:33.410Z,12.60
2023-05-20T02:42:00.229Z,12.60
2023-05-20T02:44:27.161Z,12.60
2023-05-20T02:46:54.963Z,12.60
2023-05-20T02:49:21.956Z,12.60
2023-05-20T02:51:48.854Z,12.50
2023-05-20T02:54:16.500Z,12.50
2023-05-20T02:56:43.419Z,12.50
2023-05-20T02:59:10.293Z,12.50
2023-05-20T03:01:37.145Z,12.50
2023-05-20T03:04:04.722Z,12.50
2023-05-20T03:06:34.335Z,12.40
2023-05-20T03:09:01.579Z,12.40
2023-05-20T03:11:29.875Z,12.40
2023-05-20T03:13:56.715Z,12.30
2023-05-20T03:16:25.236Z,12.30
2023-05-20T03:18:52.271Z,12.30
2023-05-20T03:21:19.667Z,12.30
2023-05-20T03:23:46.927Z,12.30
2023-05-20T03:26:13.915Z,12.30
2023-05-20T03:28:41.311Z,12.20
2023-05-20T03:31:09.255Z,12.20
2023-05-20T03:33:36.158Z,12.20
2023-05-20T03:36:04.100Z,12.20
2023-05-20T03:38:31.146Z,12.20
2023-05-20T03:40:58.002Z,12.20
2023-05-20T03:43:25.669Z,12.20
2023-05-20T03:45:52.638Z,12.10
2023-05-20T03:48:20.246Z,12.10
2023-05-20T03:50:47.301Z,12.10
2023-05-20T03:53:14.201Z,12.10
2023-05-20T03:55:42.460Z,12.10
2023-05-20T03:58:10.950Z,12.10
2023-05-20T04:00:37.895Z,12.10
2023-05-20T04:03:05.899Z,12.20
2023-05-20T04:05:33.399Z,12.10
2023-05-20T04:08:04.914Z,12.10
2023-05-20T04:10:34.533Z,12.10
2023-05-20T04:13:01.572Z,12.20
2023-05-20T04:15:29.767Z,12.20
2023-05-20T04:17:58.420Z,12.20
2023-05-20T04:20:25.432Z,12.20
2023-05-20T04:22:55.329Z,12.20
2023-05-20T04:25:22.586Z,12.20
2023-05-20T04:27:50.097Z,12.20
2023-05-20T04:30:18.621Z,12.20
2023-05-20T04:32:45.793Z,12.10
2023-05-20T04:35:13.886Z,12.20
2023-05-20T04:37:47.632Z,12.20
2023-05-20T04:40:15.080Z,12.20
2023-05-20T04:42:43.636Z,12.20
2023-05-20T04:45:12.462Z,12.20
2023-05-20T04:47:41.895Z,12.20
2023-05-20T04:50:16.251Z,12.30
2023-05-20T04:52:43.756Z,12.30
2023-05-20T04:55:12.023Z,12.30
2023-05-20T04:57:42.497Z,12.30
2023-05-20T05:00:13.588Z,12.30
2023-05-20T05:02:41.506Z,12.40
2023-05-20T05:05:08.973Z,12.50
2023-05-20T05:07:36.142Z,12.50
2023-05-20T05:10:03.244Z,12.50
2023-05-20T05:12:31.756Z,12.60
2023-05-20T05:14:59.399Z,12.70
2023-05-20T05:17:28.862Z,12.70
2023-05-20T05:20:00.114Z,12.70
2023-05-20T05:22:33.900Z,12.80
2023-05-20T05:25:07.460Z,12.80
2023-05-20T05:27:37.941Z,12.80
2023-05-20T05:30:06.288Z,12.80
2023-05-20T05:32:33.627Z,12.80
2023-05-20T05:35:00.595Z,12.90
2023-05-20T05:37:28.624Z,12.90
2023-05-20T05:39:55.646Z,12.90
2023-05-20T05:42:23.329Z,13.00
2023-05-20T05:44:51.980Z,13.00
2023-05-20T05:47:19.454Z,13.00
2023-05-20T05:49:47.616Z,13.10
2023-05-20T05:52:14.512Z,13.10
2023-05-20T05:54:42.649Z,13.10
2023-05-20T05:57:12.006Z,13.20
2023-05-20T05:59:39.054Z,13.30
2023-05-20T06:02:06.828Z,13.30
2023-05-20T06:04:33.771Z,13.40
2023-05-20T06:07:00.628Z,13.40
2023-05-20T06:09:27.845Z,13.40
2023-05-20T06:11:55.285Z,13.40
2023-05-20T06:14:22.330Z,13.40
2023-05-20T06:16:49.267Z,13.40
2023-05-20T06:19:18.205Z,13.50
2023-05-20T06:21:45.462Z,13.50
2023-05-20T06:24:12.424Z,13.50
2023-05-20T06:26:39.342Z,13.50
2023-05-20T06:29:06.293Z,13.60
2023-05-20T06:31:33.717Z,13.60
2023-05-20T06:34:00.566Z,13.70
2023-05-20T06:36:28.154Z,13.70
2023-05-20T06:38:55.220Z,13.80
2023-05-20T06:41:22.500Z,13.80
2023-05-20T06:43:53.217Z,13.90
2023-05-20T06:46:51.296Z,13.90
2023-05-20T06:49:18.307Z,13.90
2023-05-20T06:51:45.479Z,14.00
2023-05-20T06:54:12.452Z,14.00
2023-05-20T06:56:39.355Z,14.10
2023-05-20T06:59:06.223Z,14.10
2023-05-20T07:01:35.024Z,14.20
2023-05-20T07:04:02.698Z,14.30
2023-05-20T07:06:31.511Z,14.40
2023-05-20T07:08:58.760Z,14.40
2023-05-20T07:11:26.806Z,14.40
2023-05-20T07:13:54.830Z,14.40
2023-05-20T07:16:23.455Z,14.50
2023-05-20T07:18:54.141Z,14.60
2023-05-20T07:21:21.228Z,14.70
2023-05-20T07:24:12.438Z,14.80
2023-05-20T07:26:39.711Z,14.70
2023-05-20T07:29:06.676Z,14.70
2023-05-20T07:31:34.834Z,14.80
2023-05-20T07:34:02.132Z,14.80
2023-05-20T07:36:29.510Z,14.80
2023-05-20T07:39:03.604Z,14.80
2023-05-20T07:41:35.398Z,14.80
2023-05-20T07:44:06.727Z,14.80
2023-05-20T07:46:35.763Z,14.90
2023-05-20T07:49:04.750Z,14.90
2023-05-20T07:51:32.046Z,14.90
2023-05-20T07:53:59.949Z,14.90
2023-05-20T07:56:27.136Z,14.90
2023-05-20T07:58:56.416Z,15.00
2023-05-20T08:01:26.067Z,15.00
2023-05-20T08:03:54.668Z,15.10
2023-05-20T08:06:29.454Z,15.20
2023-05-20T08:08:57.495Z,15.40
2023-05-20T08:11:36.274Z,15.40
2023-05-20T08:14:03.350Z,15.50
2023-05-20T08:16:37.373Z,15.50
2023-05-20T08:19:04.515Z,15.50
2023-05-20T08:21:31.459Z,15.50
2023-05-20T08:23:58.787Z,15.50
2023-05-20T08:26:26.846Z,15.60
2023-05-20T08:28:53.802Z,15.60
2023-05-20T08:31:21.089Z,15.70
2023-05-20T08:33:48.021Z,15.70
2023-05-20T08:36:14.979Z,15.80
2023-05-20T08:38:41.938Z,15.80
2023-05-20T08:41:08.970Z,15.90
2023-05-20T08:43:38.376Z,16.00
2023-05-20T08:46:06.976Z,16.00
2023-05-20T08:48:36.164Z,16.10
2023-05-20T08:51:04.826Z,16.10
2023-05-20T08:53:31.780Z,16.20
2023-05-20T08:56:03.867Z,16.20
2023-05-20T08:58:32.770Z,16.20
2023-05-20T09:01:00.030Z,16.20
2023-05-20T09:03:27.163Z,16.30
2023-05-20T09:05:54.621Z,16.30
2023-05-20T09:08:29.052Z,16.30
2023-05-20T09:10:56.058Z,16.30
2023-05-20T09:13:24.654Z,16.30
2023-05-20T09:15:51.820Z,16.40
2023-05-20T09:18:18.900Z,16.40
2023-05-20T09:20:48.101Z,16.40
2023-05-20T09:23:15.046Z,16.40
2023-05-20T09:25:42.089Z,16.50
2023-05-20T09:28:09.993Z,16.50
2023-05-20T09:30:36.892Z,16.70
2023-05-20T09:33:05.450Z,16.80
2023-05-20T09:35:37.552Z,16.80
2023-05-20T09:38:06.822Z,16.90
2023-05-20T09:40:33.925Z,17.00
2023-05-20T09:43:03.631Z,17.00
2023-05-20T09:45:31.289Z,16.90
2023-05-20T09:50:44.107Z,16.90
2023-05-20T09:53:12.188Z,16.90
2023-05-20T09:55:39.392Z,16.90
2023-05-20T09:58:06.857Z,17.00
2023-05-20T10:00:34.635Z,17.00
2023-05-20T10:03:02.241Z,17.10
2023-05-20T10:05:33.560Z,17.10
2023-05-20T10:08:18.443Z,17.10
2023-05-20T10:11:14.943Z,17.10
2023-05-20T10:14:07.058Z,17.20
2023-05-20T10:16:54.078Z,17.30
2023-05-20T11:49:21.251Z,21.80
2023-05-20T11:51:48.082Z,21.10
2023-05-20T11:54:14.849Z,20.70
2023-05-20T11:56:45.358Z,20.30
2023-05-20T11:59:12.151Z,20.10
2023-05-20T12:01:43.502Z,20.00
2023-05-20T12:04:11.225Z,20.10
2023-05-20T12:06:38.266Z,20.30
2023-05-20T12:09:07.382Z,20.50
2023-05-20T12:11:35.718Z,20.80
2023-05-20T12:14:04.000Z,21.10
2023-05-20T12:16:33.208Z,21.30
2023-05-20T12:19:01.029Z,21.40
2023-05-20T12:21:31.602Z,21.50
2023-05-20T12:23:59.791Z,21.50
2023-05-20T12:26:28.443Z,21.60
2023-05-20T12:28:56.077Z,21.60
2023-05-20T12:31:22.922Z,21.50
2023-05-20T12:33:49.818Z,21.50
2023-05-20T12:36:16.662Z,21.50
2023-05-20T12:38:43.443Z,21.50
2023-05-20T12:41:10.320Z,21.80
2023-05-20T12:43:37.692Z,21.80
2023-05-20T12:46:04.926Z,21.70
2023-05-20T12:48:32.081Z,21.50
2023-05-20T12:50:58.956Z,21.30
2023-05-20T12:53:25.712Z,21.30
2023-05-20T12:55:52.825Z,21.60
2023-05-20T12:58:19.920Z,21.60
2023-05-20T13:00:46.747Z,21.50
2023-05-20T13:03:13.790Z,21.30
2023-05-20T13:05:40.718Z,21.40
2023-05-20T13:08:09.091Z,21.50
2023-05-20T13:10:36.233Z,21.50
2023-05-20T13:13:03.241Z,21.60
2023-05-20T13:15:30.056Z,21.60
2023-05-20T13:17:57.192Z,21.80
2023-05-20T13:20:24.048Z,21.90
2023-05-20T13:22:51.080Z,22.00
2023-05-20T13:25:17.926Z,22.10
2023-05-20T13:27:44.699Z,22.10
2023-05-20T13:30:11.770Z,22.00
2023-05-20T13:32:38.623Z,21.90
2023-05-20T13:35:06.064Z,21.80
2023-05-20T13:37:32.915Z,22.00
2023-05-20T13:39:59.700Z,22.30
2023-05-20T13:42:26.678Z,22.40
2023-05-20T13:44:53.457Z,22.60
2023-05-20T13:47:20.312Z,22.80
2023-05-20T13:49:47.106Z,22.80
2023-05-20T13:52:13.869Z,22.80
2023-05-20T13:54:42.876Z,22.70
2023-05-20T13:57:09.660Z,22.50
2023-05-20T13:59:36.454Z,22.40
2023-05-20T14:02:03.577Z,22.50
2023-05-20T14:04:31.408Z,22.70
2023-05-20T14:06:59.339Z,22.70
2023-05-20T14:09:26.468Z,22.60
2023-05-20T14:11:53.465Z,22.60
2023-05-20T14:14:20.480Z,22.60
2023-05-20T14:16:47.582Z,22.80
2023-05-20T14:19:14.535Z,23.00
2023-05-20T14:21:41.294Z,23.30
2023-05-20T14:24:08.157Z,23.40
2023-05-20T14:26:34.928Z,23.50
2023-05-20T14:29:01.719Z,23.70
2023-05-20T14:31:28.715Z,23.60
2023-05-20T14:33:55.573Z,23.50
2023-05-20T14:36:22.412Z,23.50
2023-05-20T14:38:49.832Z,23.40
2023-05-20T14:41:16.885Z,23.10
2023-05-20T14:43:43.807Z,22.90
2023-05-20T14:46:11.060Z,22.80
2023-05-20T14:48:37.983Z,22.70
2023-05-20T14:51:04.940Z,22.50
2023-05-20T14:53:31.760Z,22.50
2023-05-20T14:55:58.554Z,22.60
2023-05-20T14:58:25.529Z,22.60
2023-05-20T15:00:55.889Z,22.70
2023-05-20T15:03:24.417Z,22.60
2023-05-20T15:05:51.330Z,22.50
2023-05-20T15:08:18.235Z,22.50
2023-05-20T15:10:45.088Z,22.60
2023-05-20T15:13:11.941Z,22.60
2023-05-20T15:15:38.810Z,22.70
2023-05-20T15:18:05.596Z,22.90
2023-05-20T15:20:32.432Z,23.40
2023-05-20T15:23:00.373Z,24.00
2023-05-20T15:25:27.818Z,25.20
2023-05-20T15:27:54.602Z,26.40
2023-05-20T15:30:22.703Z,26.90
2023-05-20T15:32:49.777Z,27.10
2023-05-20T15:35:16.739Z,27.20
2023-05-20T15:37:43.548Z,27.20
2023-05-20T15:40:11.260Z,27.50
2023-05-20T15:42:38.054Z,27.70
2023-05-20T15:45:05.202Z,27.40
2023-05-20T15:47:32.005Z,26.80
2023-05-20T15:49:58.993Z,26.30
2023-05-20T15:52:25.814Z,27.20
2023-05-20T15:54:52.659Z,28.60
2023-05-20T15:57:19.615Z,29.80
2023-05-20T15:59:46.487Z,30.40
2023-05-20T16:02:13.373Z,31.20
2023-05-20T16:04:40.230Z,31.50
2023-05-20T16:07:07.033Z,30.60
2023-05-20T16:09:34.002Z,29.50
2023-05-20T16:12:00.829Z,28.50
2023-05-20T16:14:27.618Z,27.50
2023-05-20T16:16:54.465Z,26.60
2023-05-20T16:19:21.310Z,26.20
2023-05-20T16:21:48.143Z,25.80
2023-05-20T16:24:15.623Z,25.40
2023-05-20T16:26:42.552Z,24.80
2023-05-20T16:29:09.324Z,24.60
2023-05-20T16:31:36.138Z,24.80
2023-05-20T16:34:03.949Z,25.10
2023-05-20T16:36:31.029Z,25.50
2023-05-20T16:38:57.803Z,25.50
2023-05-20T16:41:24.603Z,25.90
2023-05-20T16:43:51.374Z,26.80
2023-05-20T16:46:18.174Z,28.10
2023-05-20T16:48:44.960Z,29.20
2023-05-20T16:51:11.935Z,29.50
2023-05-20T16:53:38.782Z,29.10
2023-05-20T16:56:08.976Z,28.60
2023-05-20T16:58:35.857Z,28.10
2023-05-20T17:01:02.765Z,27.70
2023-05-20T17:03:30.179Z,27.00
2023-05-20T17:05:57.211Z,26.30
2023-05-20T17:08:24.216Z,25.60
2023-05-20T17:10:53.969Z,25.30
2023-05-20T17:13:21.461Z,25.00
2023-05-20T17:15:48.371Z,24.60
